Kaohsiung International Airport
RCKH : now visible

Airfield :











YOU CAN JOIN US ON...

 
LOGIN :

Register | Disclaimer

   EN    FR    IT 

 









Legend :    VFR   Marginal VFR   IFR   Intensive IFR   Very Intensive IFR
Visi :
Ceiling :
>= 8 km
>= 3000ft
5 to 8 km
1000 to 3000 ft
1500m to 5 km
500 to 1000 ft
800 to 1500m
200 to 500 ft
< 800m
< 200 ft
Symbols :   Thunderstorms  Fog  Heavy snow  Heavy precipitations  Wind > 20 kt






- Airport Elevation : 31 ft
- IATA code : KHH


RCKH - Kaohsiung International

CURRENT METAR :
  • 261330Z 34010KT 300V010 9999 FEW013 SCT035 BKN060 18/15 Q1010 NOSIG RMK A2985

EXPIRED METARs :
  • 261300Z 35013KT 320V020 9999 FEW013 SCT040 BKN060 18/15 Q1010 NOSIG RMK A2984
  • 261230Z 35013KT 320V020 9999 SCT012 BKN040 18/15 Q1010 NOSIG RMK A2985
  • 261226Z 34012KT 320V020 9999 SCT012 BKN040 18/15 Q1010 NOSIG RMK A2985
  • 261206Z 36014G26KT 320V040 9999 BKN012 BKN030 18/15 Q1010 NOSIG RMK A2985
  • 261130Z 34014G24KT 310V030 9999 SCT010 BKN014 BKN030 19/16 Q1010 NOSIG RMK 35015KT/R09 A2985
  • 261100Z 34013G24KT 290V010 9999 FEW010 BKN014 BKN030 20/18 Q1010 NOSIG RMK 33018G28KT/R09 A2983

TAF TAF RCKH
Valid from the 26 at 12:00 until the 27 at 18:00 UTC


261100Z 2612/2718 34005KT 8000 FEW010 SCT016 BKN032
TEMPO 2612/2618 33012G22KT 5000 BR SCT006 BKN011 BKN030
BECMG 2700/2702 30008KT
BECMG 2709/2711 34005KT



MET'MAP, your aeronautical weather chart ! - Copyright ORBIFLY December 2007 - Disclaimer

ORBIFLY MET'MAP TEAM :

Programming & Development : Alexandra Zaïnal
Concept & original design : Baudouin d'Aumeries
Assistance for programming : Marc-Olivier Méhu
Technical & hardware support : Manuel Goepfert

Contact : metmap@orbifly.com




SOURCES & CREDITS :

   NOAA       Earth
Advisory